sensor_id;sensor_type;location;lat;lon;timestamp;temperature;humidity
81383;DHT22;70834;37.534;-122.308;2023-10-09T00:02:17;25.10;48.10
81383;DHT22;70834;37.534;-122.308;2023-10-09T00:04:39;25.10;48.20
81383;DHT22;70834;37.534;-122.308;2023-10-09T00:07:06;25.00;48.30
81383;DHT22;70834;37.534;-122.308;2023-10-09T00:09:29;25.00;48.10
81383;DHT22;70834;37.534;-122.308;2023-10-09T00:11:53;24.90;47.80
81383;DHT22;70834;37.534;-122.308;2023-10-09T00:14:18;24.90;47.80
81383;DHT22;70834;37.534;-122.308;2023-10-09T00:16:39;24.90;47.70
81383;DHT22;70834;37.534;-122.308;2023-10-09T00:19:16;24.80;47.70
81383;DHT22;70834;37.534;-122.308;2023-10-09T00:21:44;24.80;47.70
81383;DHT22;70834;37.534;-122.308;2023-10-09T00:24:06;24.70;47.60
81383;DHT22;70834;37.534;-122.308;2023-10-09T00:26:34;24.70;47.80
81383;DHT22;70834;37.534;-122.308;2023-10-09T00:29:04;24.60;47.90
81383;DHT22;70834;37.534;-122.308;2023-10-09T00:31:26;24.50;47.90
81383;DHT22;70834;37.534;-122.308;2023-10-09T00:33:51;24.50;47.60
81383;DHT22;70834;37.534;-122.308;2023-10-09T00:36:16;24.40;47.60
81383;DHT22;70834;37.534;-122.308;2023-10-09T00:38:40;24.30;47.80
81383;DHT22;70834;37.534;-122.308;2023-10-09T00:41:09;24.20;48.00
81383;DHT22;70834;37.534;-122.308;2023-10-09T00:43:31;24.10;48.40
81383;DHT22;70834;37.534;-122.308;2023-10-09T00:45:59;24.00;48.60
81383;DHT22;70834;37.534;-122.308;2023-10-09T00:48:24;23.90;48.80
81383;DHT22;70834;37.534;-122.308;2023-10-09T00:50:52;23.70;49.30
81383;DHT22;70834;37.534;-122.308;2023-10-09T00:53:14;23.60;49.80
81383;DHT22;70834;37.534;-122.308;2023-10-09T00:55:39;23.40;50.20
81383;DHT22;70834;37.534;-122.308;2023-10-09T00:58:04;23.30;50.70
81383;DHT22;70834;37.534;-122.308;2023-10-09T01:00:33;23.10;51.10
81383;DHT22;70834;37.534;-122.308;2023-10-09T01:03:06;23.00;51.40
81383;DHT22;70834;37.534;-122.308;2023-10-09T01:05:37;22.80;51.90
81383;DHT22;70834;37.534;-122.308;2023-10-09T01:08:00;22.60;52.30
81383;DHT22;70834;37.534;-122.308;2023-10-09T01:10:21;22.40;52.50
81383;DHT22;70834;37.534;-122.308;2023-10-09T01:12:43;22.30;52.80
81383;DHT22;70834;37.534;-122.308;2023-10-09T01:15:07;22.20;53.30
81383;DHT22;70834;37.534;-122.308;2023-10-09T01:17:29;22.00;53.80
81383;DHT22;70834;37.534;-122.308;2023-10-09T01:20:11;21.80;54.10
81383;DHT22;70834;37.534;-122.308;2023-10-09T01:22:48;21.60;54.70
81383;DHT22;70834;37.534;-122.308;2023-10-09T01:25:12;21.40;55.40
81383;DHT22;70834;37.534;-122.308;2023-10-09T01:27:33;21.40;55.60
81383;DHT22;70834;37.534;-122.308;2023-10-09T01:29:55;21.20;56.00
81383;DHT22;70834;37.534;-122.308;2023-10-09T01:32:20;21.00;56.30
81383;DHT22;70834;37.534;-122.308;2023-10-09T01:34:42;20.90;56.60
81383;DHT22;70834;37.534;-122.308;2023-10-09T01:37:12;20.80;57.10
81383;DHT22;70834;37.534;-122.308;2023-10-09T01:39:55;20.60;57.20
81383;DHT22;70834;37.534;-122.308;2023-10-09T01:42:46;20.50;57.70
81383;DHT22;70834;37.534;-122.308;2023-10-09T01:45:08;20.40;58.20
81383;DHT22;70834;37.534;-122.308;2023-10-09T01:47:33;20.20;58.70
81383;DHT22;70834;37.534;-122.308;2023-10-09T01:49:55;20.10;58.90
81383;DHT22;70834;37.534;-122.308;2023-10-09T01:52:19;20.00;59.10
81383;DHT22;70834;37.534;-122.308;2023-10-09T01:54:42;19.90;59.40
81383;DHT22;70834;37.534;-122.308;2023-10-09T01:57:09;19.80;60.00
81383;DHT22;70834;37.534;-122.308;2023-10-09T01:59:34;19.70;60.30
81383;DHT22;70834;37.534;-122.308;2023-10-09T02:01:59;19.60;60.50
81383;DHT22;70834;37.534;-122.308;2023-10-09T02:04:26;19.50;60.90
81383;DHT22;70834;37.534;-122.308;2023-10-09T02:06:48;19.40;61.10
81383;DHT22;70834;37.534;-122.308;2023-10-09T02:09:13;19.30;61.30
81383;DHT22;70834;37.534;-122.308;2023-10-09T02:11:46;19.30;61.90
81383;DHT22;70834;37.534;-122.308;2023-10-09T02:14:08;19.10;62.30
81383;DHT22;70834;37.534;-122.308;2023-10-09T02:16:41;19.10;62.70
81383;DHT22;70834;37.534;-122.308;2023-10-09T02:19:03;19.00;63.20
81383;DHT22;70834;37.534;-122.308;2023-10-09T02:21:29;18.90;63.30
81383;DHT22;70834;37.534;-122.308;2023-10-09T02:24:16;18.80;63.60
81383;DHT22;70834;37.534;-122.308;2023-10-09T02:26:57;18.70;63.70
81383;DHT22;70834;37.534;-122.308;2023-10-09T02:29:18;18.60;64.10
81383;DHT22;70834;37.534;-122.308;2023-10-09T02:31:44;18.50;64.30
81383;DHT22;70834;37.534;-122.308;2023-10-09T02:34:12;18.50;64.60
81383;DHT22;70834;37.534;-122.308;2023-10-09T02:36:36;18.40;64.90
81383;DHT22;70834;37.534;-122.308;2023-10-09T02:39:10;18.30;65.00
81383;DHT22;70834;37.534;-122.308;2023-10-09T02:41:56;18.20;65.40
81383;DHT22;70834;37.534;-122.308;2023-10-09T02:44:33;18.20;66.10
81383;DHT22;70834;37.534;-122.308;2023-10-09T02:47:00;18.10;65.90
81383;DHT22;70834;37.534;-122.308;2023-10-09T02:49:26;18.00;66.40
81383;DHT22;70834;37.534;-122.308;2023-10-09T02:51:48;18.00;66.70
81383;DHT22;70834;37.534;-122.308;2023-10-09T02:54:14;18.00;67.00
81383;DHT22;70834;37.534;-122.308;2023-10-09T02:56:48;17.90;67.50
81383;DHT22;70834;37.534;-122.308;2023-10-09T02:59:28;17.80;67.50
81383;DHT22;70834;37.534;-122.308;2023-10-09T03:01:51;17.80;68.20
81383;DHT22;70834;37.534;-122.308;2023-10-09T03:04:15;17.70;68.30
81383;DHT22;70834;37.534;-122.308;2023-10-09T03:06:37;17.60;68.70
81383;DHT22;70834;37.534;-122.308;2023-10-09T03:09:04;17.60;69.00
81383;DHT22;70834;37.534;-122.308;2023-10-09T03:11:37;17.50;69.30
81383;DHT22;70834;37.534;-122.308;2023-10-09T03:13:58;17.50;69.30
81383;DHT22;70834;37.534;-122.308;2023-10-09T03:16:20;17.50;69.60
81383;DHT22;70834;37.534;-122.308;2023-10-09T03:18:42;17.40;70.00
81383;DHT22;70834;37.534;-122.308;2023-10-09T03:21:08;17.30;70.00
81383;DHT22;70834;37.534;-122.308;2023-10-09T03:23:33;17.30;70.50
81383;DHT22;70834;37.534;-122.308;2023-10-09T03:25:57;17.20;70.70
81383;DHT22;70834;37.534;-122.308;2023-10-09T03:28:19;17.20;71.00
81383;DHT22;70834;37.534;-122.308;2023-10-09T03:30:41;17.20;70.90
81383;DHT22;70834;37.534;-122.308;2023-10-09T03:33:11;17.20;70.90
81383;DHT22;70834;37.534;-122.308;2023-10-09T03:35:36;17.20;71.50
81383;DHT22;70834;37.534;-122.308;2023-10-09T03:38:00;17.10;71.70
81383;DHT22;70834;37.534;-122.308;2023-10-09T03:40:33;17.10;71.80
81383;DHT22;70834;37.534;-122.308;2023-10-09T03:42:55;17.00;72.20
81383;DHT22;70834;37.534;-122.308;2023-10-09T03:45:19;17.00;72.50
81383;DHT22;70834;37.534;-122.308;2023-10-09T03:47:46;16.90;72.80
81383;DHT22;70834;37.534;-122.308;2023-10-09T03:50:10;16.90;72.70
81383;DHT22;70834;37.534;-122.308;2023-10-09T03:52:47;16.80;73.10
81383;DHT22;70834;37.534;-122.308;2023-10-09T03:55:11;16.80;73.30
81383;DHT22;70834;37.534;-122.308;2023-10-09T03:57:32;16.80;73.30
81383;DHT22;70834;37.534;-122.308;2023-10-09T03:59:57;16.70;73.50
81383;DHT22;70834;37.534;-122.308;2023-10-09T04:02:21;16.70;73.70
81383;DHT22;70834;37.534;-122.308;2023-10-09T04:04:43;16.70;74.00
81383;DHT22;70834;37.534;-122.308;2023-10-09T04:07:08;16.70;74.10
81383;DHT22;70834;37.534;-122.308;2023-10-09T04:09:33;16.70;74.20
81383;DHT22;70834;37.534;-122.308;2023-10-09T04:12:00;16.60;74.40
81383;DHT22;70834;37.534;-122.308;2023-10-09T04:14:47;16.60;74.60
81383;DHT22;70834;37.534;-122.308;2023-10-09T04:17:16;16.60;74.70
81383;DHT22;70834;37.534;-122.308;2023-10-09T04:19:43;16.60;74.80
81383;DHT22;70834;37.534;-122.308;2023-10-09T04:22:27;16.50;74.80
81383;DHT22;70834;37.534;-122.308;2023-10-09T04:24:52;16.50;74.90
81383;DHT22;70834;37.534;-122.308;2023-10-09T04:27:13;16.50;75.00
81383;DHT22;70834;37.534;-122.308;2023-10-09T04:29:38;16.50;75.00
81383;DHT22;70834;37.534;-122.308;2023-10-09T04:31:59;16.50;75.30
81383;DHT22;70834;37.534;-122.308;2023-10-09T04:34:22;16.50;75.30
81383;DHT22;70834;37.534;-122.308;2023-10-09T04:36:45;16.50;75.60
81383;DHT22;70834;37.534;-122.308;2023-10-09T04:39:17;16.50;75.80
81383;DHT22;70834;37.534;-122.308;2023-10-09T04:41:51;16.50;75.90
81383;DHT22;70834;37.534;-122.308;2023-10-09T04:44:13;16.40;76.10
81383;DHT22;70834;37.534;-122.308;2023-10-09T04:46:40;16.40;76.30
81383;DHT22;70834;37.534;-122.308;2023-10-09T04:49:39;16.40;76.30
81383;DHT22;70834;37.534;-122.308;2023-10-09T04:52:27;16.40;76.60
81383;DHT22;70834;37.534;-122.308;2023-10-09T04:55:09;16.40;76.60
81383;DHT22;70834;37.534;-122.308;2023-10-09T04:57:30;16.30;76.70
81383;DHT22;70834;37.534;-122.308;2023-10-09T04:59:58;16.30;76.80
81383;DHT22;70834;37.534;-122.308;2023-10-09T05:02:20;16.30;77.40
81383;DHT22;70834;37.534;-122.308;2023-10-09T05:04:44;16.20;76.90
81383;DHT22;70834;37.534;-122.308;2023-10-09T05:07:08;16.20;76.90
81383;DHT22;70834;37.534;-122.308;2023-10-09T05:09:45;16.30;77.00
81383;DHT22;70834;37.534;-122.308;2023-10-09T05:12:32;16.20;77.10
81383;DHT22;70834;37.534;-122.308;2023-10-09T05:14:53;16.20;77.10
81383;DHT22;70834;37.534;-122.308;2023-10-09T05:17:30;16.20;77.20
81383;DHT22;70834;37.534;-122.308;2023-10-09T05:19:55;16.20;77.40
81383;DHT22;70834;37.534;-122.308;2023-10-09T05:22:36;16.20;77.40
81383;DHT22;70834;37.534;-122.308;2023-10-09T05:24:58;16.10;77.30
81383;DHT22;70834;37.534;-122.308;2023-10-09T05:27:19;16.10;77.30
81383;DHT22;70834;37.534;-122.308;2023-10-09T05:30:01;16.10;77.40
81383;DHT22;70834;37.534;-122.308;2023-10-09T05:32:33;16.10;77.50
81383;DHT22;70834;37.534;-122.308;2023-10-09T05:35:09;16.10;77.60
81383;DHT22;70834;37.534;-122.308;2023-10-09T05:37:36;16.10;78.00
81383;DHT22;70834;37.534;-122.308;2023-10-09T05:40:05;16.10;78.20
81383;DHT22;70834;37.534;-122.308;2023-10-09T05:42:39;16.10;78.30
81383;DHT22;70834;37.534;-122.308;2023-10-09T05:45:11;16.00;78.20
81383;DHT22;70834;37.534;-122.308;2023-10-09T05:47:39;16.00;78.30
81383;DHT22;70834;37.534;-122.308;2023-10-09T05:50:08;16.00;78.30
81383;DHT22;70834;37.534;-122.308;2023-10-09T05:52:30;16.00;78.30
81383;DHT22;70834;37.534;-122.308;2023-10-09T05:55:00;16.00;78.30
81383;DHT22;70834;37.534;-122.308;2023-10-09T05:57:36;16.00;78.40
81383;DHT22;70834;37.534;-122.308;2023-10-09T06:00:16;16.00;78.50
81383;DHT22;70834;37.534;-122.308;2023-10-09T06:02:55;16.00;78.70
81383;DHT22;70834;37.534;-122.308;2023-10-09T06:05:37;16.00;78.80
81383;DHT22;70834;37.534;-122.308;2023-10-09T06:08:02;16.00;79.00
81383;DHT22;70834;37.534;-122.308;2023-10-09T06:10:27;16.00;79.00
81383;DHT22;70834;37.534;-122.308;2023-10-09T06:13:00;16.00;79.00
81383;DHT22;70834;37.534;-122.308;2023-10-09T06:15:24;16.10;79.00
81383;DHT22;70834;37.534;-122.308;2023-10-09T06:18:11;16.10;78.70
81383;DHT22;70834;37.534;-122.308;2023-10-09T06:20:53;16.10;78.40
81383;DHT22;70834;37.534;-122.308;2023-10-09T06:23:26;16.10;78.20
81383;DHT22;70834;37.534;-122.308;2023-10-09T06:26:07;16.00;78.00
81383;DHT22;70834;37.534;-122.308;2023-10-09T06:28:44;16.00;78.10
81383;DHT22;70834;37.534;-122.308;2023-10-09T06:31:14;16.00;78.10
81383;DHT22;70834;37.534;-122.308;2023-10-09T06:34:07;16.00;78.10
81383;DHT22;70834;37.534;-122.308;2023-10-09T06:36:36;16.00;78.20
81383;DHT22;70834;37.534;-122.308;2023-10-09T06:39:07;15.90;78.20
81383;DHT22;70834;37.534;-122.308;2023-10-09T06:41:46;15.90;78.50
81383;DHT22;70834;37.534;-122.308;2023-10-09T06:44:27;15.90;78.50
81383;DHT22;70834;37.534;-122.308;2023-10-09T06:47:07;15.90;78.60
81383;DHT22;70834;37.534;-122.308;2023-10-09T06:49:29;15.90;79.00
81383;DHT22;70834;37.534;-122.308;2023-10-09T06:51:54;16.00;79.10
81383;DHT22;70834;37.534;-122.308;2023-10-09T06:54:29;16.00;79.30
81383;DHT22;70834;37.534;-122.308;2023-10-09T06:56:58;16.00;79.50
81383;DHT22;70834;37.534;-122.308;2023-10-09T06:59:34;16.10;79.60
81383;DHT22;70834;37.534;-122.308;2023-10-09T07:02:24;16.20;79.60
81383;DHT22;70834;37.534;-122.308;2023-10-09T07:04:49;16.20;79.30
81383;DHT22;70834;37.534;-122.308;2023-10-09T07:07:15;16.30;79.20
81383;DHT22;70834;37.534;-122.308;2023-10-09T07:09:41;16.30;79.10
81383;DHT22;70834;37.534;-122.308;2023-10-09T07:12:03;16.30;78.70
81383;DHT22;70834;37.534;-122.308;2023-10-09T07:14:31;16.30;78.50
81383;DHT22;70834;37.534;-122.308;2023-10-09T07:16:53;16.30;78.60
81383;DHT22;70834;37.534;-122.308;2023-10-09T07:19:40;16.40;78.60
81383;DHT22;70834;37.534;-122.308;2023-10-09T07:22:02;16.40;78.40
81383;DHT22;70834;37.534;-122.308;2023-10-09T07:24:36;16.40;78.30
81383;DHT22;70834;37.534;-122.308;2023-10-09T07:27:29;16.50;78.30
81383;DHT22;70834;37.534;-122.308;2023-10-09T07:30:07;16.40;78.10
81383;DHT22;70834;37.534;-122.308;2023-10-09T07:32:47;16.50;78.00
81383;DHT22;70834;37.534;-122.308;2023-10-09T07:35:09;16.50;78.00
81383;DHT22;70834;37.534;-122.308;2023-10-09T07:37:50;16.50;77.80
81383;DHT22;70834;37.534;-122.308;2023-10-09T07:40:12;16.50;77.60
81383;DHT22;70834;37.534;-122.308;2023-10-09T07:42:35;16.50;77.30
81383;DHT22;70834;37.534;-122.308;2023-10-09T07:45:03;16.40;77.10
81383;DHT22;70834;37.534;-122.308;2023-10-09T07:47:39;16.40;77.00
81383;DHT22;70834;37.534;-122.308;2023-10-09T07:50:19;16.40;76.90
81383;DHT22;70834;37.534;-122.308;2023-10-09T07:52:42;16.30;76.70
81383;DHT22;70834;37.534;-122.308;2023-10-09T07:55:06;16.30;77.00
81383;DHT22;70834;37.534;-122.308;2023-10-09T07:57:43;16.30;76.90
81383;DHT22;70834;37.534;-122.308;2023-10-09T08:00:13;16.20;76.90
81383;DHT22;70834;37.534;-122.308;2023-10-09T08:02:54;16.20;77.00
81383;DHT22;70834;37.534;-122.308;2023-10-09T08:05:21;16.20;77.00
81383;DHT22;70834;37.534;-122.308;2023-10-09T08:07:44;16.10;77.00
81383;DHT22;70834;37.534;-122.308;2023-10-09T08:10:15;16.10;76.90
81383;DHT22;70834;37.534;-122.308;2023-10-09T08:12:40;16.10;76.90
81383;DHT22;70834;37.534;-122.308;2023-10-09T08:15:08;16.00;76.90
81383;DHT22;70834;37.534;-122.308;2023-10-09T08:17:42;16.00;77.00
81383;DHT22;70834;37.534;-122.308;2023-10-09T08:20:09;16.00;77.30
81383;DHT22;70834;37.534;-122.308;2023-10-09T08:22:33;15.90;77.30
81383;DHT22;70834;37.534;-122.308;2023-10-09T08:25:04;16.00;77.60
81383;DHT22;70834;37.534;-122.308;2023-10-09T08:27:29;15.90;77.80
81383;DHT22;70834;37.534;-122.308;2023-10-09T08:29:51;15.90;77.90
81383;DHT22;70834;37.534;-122.308;2023-10-09T08:32:32;15.90;78.00
81383;DHT22;70834;37.534;-122.308;2023-10-09T08:34:59;15.80;78.30
81383;DHT22;70834;37.534;-122.308;2023-10-09T08:37:20;15.80;78.80
81383;DHT22;70834;37.534;-122.308;2023-10-09T08:39:46;15.80;78.40
81383;DHT22;70834;37.534;-122.308;2023-10-09T08:42:11;15.80;78.50
81383;DHT22;70834;37.534;-122.308;2023-10-09T08:44:33;15.80;78.70
81383;DHT22;70834;37.534;-122.308;2023-10-09T08:46:56;15.70;78.80
81383;DHT22;70834;37.534;-122.308;2023-10-09T08:49:18;15.70;78.70
81383;DHT22;70834;37.534;-122.308;2023-10-09T08:51:39;15.70;78.90
81383;DHT22;70834;37.534;-122.308;2023-10-09T08:54:03;15.70;78.80
81383;DHT22;70834;37.534;-122.308;2023-10-09T08:56:25;15.70;78.90
81383;DHT22;70834;37.534;-122.308;2023-10-09T08:58:47;15.70;79.00
81383;DHT22;70834;37.534;-122.308;2023-10-09T09:01:08;15.70;78.90
81383;DHT22;70834;37.534;-122.308;2023-10-09T09:03:40;15.70;79.60
81383;DHT22;70834;37.534;-122.308;2023-10-09T09:06:05;15.70;79.10
81383;DHT22;70834;37.534;-122.308;2023-10-09T09:08:28;15.70;79.00
81383;DHT22;70834;37.534;-122.308;2023-10-09T09:11:00;15.70;79.00
81383;DHT22;70834;37.534;-122.308;2023-10-09T09:14:03;15.60;79.00
81383;DHT22;70834;37.534;-122.308;2023-10-09T09:16:28;15.60;79.00
81383;DHT22;70834;37.534;-122.308;2023-10-09T09:18:54;15.60;79.10
81383;DHT22;70834;37.534;-122.308;2023-10-09T09:21:21;15.70;79.00
81383;DHT22;70834;37.534;-122.308;2023-10-09T09:23:53;15.60;79.10
81383;DHT22;70834;37.534;-122.308;2023-10-09T09:26:20;15.60;79.10
81383;DHT22;70834;37.534;-122.308;2023-10-09T09:28:58;15.60;79.10
81383;DHT22;70834;37.534;-122.308;2023-10-09T09:31:19;15.60;79.20
81383;DHT22;70834;37.534;-122.308;2023-10-09T09:33:43;15.60;79.20
81383;DHT22;70834;37.534;-122.308;2023-10-09T09:36:05;15.60;79.10
81383;DHT22;70834;37.534;-122.308;2023-10-09T09:38:27;15.60;79.30
81383;DHT22;70834;37.534;-122.308;2023-10-09T09:40:49;15.60;79.20
81383;DHT22;70834;37.534;-122.308;2023-10-09T09:43:15;15.60;79.40
81383;DHT22;70834;37.534;-122.308;2023-10-09T09:45:43;15.60;79.50
81383;DHT22;70834;37.534;-122.308;2023-10-09T09:48:09;15.60;79.30
81383;DHT22;70834;37.534;-122.308;2023-10-09T09:50:34;15.60;79.70
81383;DHT22;70834;37.534;-122.308;2023-10-09T09:53:00;15.60;79.50
81383;DHT22;70834;37.534;-122.308;2023-10-09T09:55:25;15.60;79.80
81383;DHT22;70834;37.534;-122.308;2023-10-09T09:57:52;15.60;79.90
81383;DHT22;70834;37.534;-122.308;2023-10-09T10:00:13;15.60;79.90
81383;DHT22;70834;37.534;-122.308;2023-10-09T10:02:50;15.60;80.00
81383;DHT22;70834;37.534;-122.308;2023-10-09T10:05:12;15.60;80.00
81383;DHT22;70834;37.534;-122.308;2023-10-09T10:07:37;15.60;80.00
81383;DHT22;70834;37.534;-122.308;2023-10-09T10:10:36;15.70;80.10
81383;DHT22;70834;37.534;-122.308;2023-10-09T10:12:59;15.70;80.10
81383;DHT22;70834;37.534;-122.308;2023-10-09T10:15:24;15.80;80.10
81383;DHT22;70834;37.534;-122.308;2023-10-09T10:20:24;15.90;79.70
81383;DHT22;70834;37.534;-122.308;2023-10-09T10:22:45;15.90;79.40
81383;DHT22;70834;37.534;-122.308;2023-10-09T10:28:22;16.00;78.70
81383;DHT22;70834;37.534;-122.308;2023-10-09T10:31:10;16.00;78.50
81383;DHT22;70834;37.534;-122.308;2023-10-09T10:36:19;16.10;78.60
81383;DHT22;70834;37.534;-122.308;2023-10-09T10:39:08;16.10;78.50
81383;DHT22;70834;37.534;-122.308;2023-10-09T10:41:56;16.10;78.50
81383;DHT22;70834;37.534;-122.308;2023-10-09T10:44:28;16.20;78.40
81383;DHT22;70834;37.534;-122.308;2023-10-09T10:47:00;16.20;78.30
81383;DHT22;70834;37.534;-122.308;2023-10-09T10:49:22;16.20;78.10
81383;DHT22;70834;37.534;-122.308;2023-10-09T10:51:44;16.30;78.00
81383;DHT22;70834;37.534;-122.308;2023-10-09T10:54:10;16.40;77.80
81383;DHT22;70834;37.534;-122.308;2023-10-09T10:56:50;16.40;77.70
81383;DHT22;70834;37.534;-122.308;2023-10-09T10:59:12;16.50;77.40
81383;DHT22;70834;37.534;-122.308;2023-10-09T11:01:35;16.50;77.10
81383;DHT22;70834;37.534;-122.308;2023-10-09T11:04:22;16.60;76.80
81383;DHT22;70834;37.534;-122.308;2023-10-09T11:07:04;16.60;76.60
81383;DHT22;70834;37.534;-122.308;2023-10-09T11:09:49;16.60;76.50
81383;DHT22;70834;37.534;-122.308;2023-10-09T11:12:30;16.60;76.20
81383;DHT22;70834;37.534;-122.308;2023-10-09T11:15:46;16.70;76.10
81383;DHT22;70834;37.534;-122.308;2023-10-09T11:18:06;16.70;76.00
81383;DHT22;70834;37.534;-122.308;2023-10-09T11:20:40;16.70;75.80
81383;DHT22;70834;37.534;-122.308;2023-10-09T11:23:14;16.70;75.60
81383;DHT22;70834;37.534;-122.308;2023-10-09T11:25:37;16.80;75.40
81383;DHT22;70834;37.534;-122.308;2023-10-09T11:28:00;16.80;75.20
81383;DHT22;70834;37.534;-122.308;2023-10-09T11:30:41;16.80;75.20
81383;DHT22;70834;37.534;-122.308;2023-10-09T11:33:07;16.80;75.00
81383;DHT22;70834;37.534;-122.308;2023-10-09T11:35:35;16.80;75.00
81383;DHT22;70834;37.534;-122.308;2023-10-09T11:37:57;16.90;74.80
81383;DHT22;70834;37.534;-122.308;2023-10-09T11:40:35;16.90;74.80
81383;DHT22;70834;37.534;-122.308;2023-10-09T11:43:14;16.90;74.80
81383;DHT22;70834;37.534;-122.308;2023-10-09T11:45:35;16.90;74.80
81383;DHT22;70834;37.534;-122.308;2023-10-09T11:48:16;16.90;74.70
81383;DHT22;70834;37.534;-122.308;2023-10-09T11:51:12;16.90;74.60
81383;DHT22;70834;37.534;-122.308;2023-10-09T11:53:44;16.90;74.50
81383;DHT22;70834;37.534;-122.308;2023-10-09T11:56:25;17.00;74.50
81383;DHT22;70834;37.534;-122.308;2023-10-09T11:58:48;17.00;74.50
81383;DHT22;70834;37.534;-122.308;2023-10-09T12:01:13;17.00;74.40
81383;DHT22;70834;37.534;-122.308;2023-10-09T12:03:56;17.00;74.30
81383;DHT22;70834;37.534;-122.308;2023-10-09T12:06:19;17.00;74.20
81383;DHT22;70834;37.534;-122.308;2023-10-09T12:08:43;17.00;74.00
81383;DHT22;70834;37.534;-122.308;2023-10-09T12:11:04;17.00;74.00
81383;DHT22;70834;37.534;-122.308;2023-10-09T12:13:29;17.10;74.00
81383;DHT22;70834;37.534;-122.308;2023-10-09T12:15:51;17.00;73.80
81383;DHT22;70834;37.534;-122.308;2023-10-09T12:18:13;17.10;73.60
81383;DHT22;70834;37.534;-122.308;2023-10-09T12:20:39;17.00;73.50
81383;DHT22;70834;37.534;-122.308;2023-10-09T12:23:02;17.10;73.30
81383;DHT22;70834;37.534;-122.308;2023-10-09T12:25:27;17.10;73.20
81383;DHT22;70834;37.534;-122.308;2023-10-09T12:27:52;17.10;73.20
81383;DHT22;70834;37.534;-122.308;2023-10-09T12:30:18;17.10;73.30
81383;DHT22;70834;37.534;-122.308;2023-10-09T12:32:47;17.10;73.30
81383;DHT22;70834;37.534;-122.308;2023-10-09T12:35:09;17.10;73.20
81383;DHT22;70834;37.534;-122.308;2023-10-09T12:37:38;17.10;73.20
81383;DHT22;70834;37.534;-122.308;2023-10-09T12:40:01;17.10;73.10
81383;DHT22;70834;37.534;-122.308;2023-10-09T12:42:26;17.10;73.10
81383;DHT22;70834;37.534;-122.308;2023-10-09T12:44:49;17.10;73.00
81383;DHT22;70834;37.534;-122.308;2023-10-09T12:47:10;17.10;72.90
81383;DHT22;70834;37.534;-122.308;2023-10-09T12:49:34;17.10;72.80
81383;DHT22;70834;37.534;-122.308;2023-10-09T12:51:59;17.10;72.80
81383;DHT22;70834;37.534;-122.308;2023-10-09T12:54:20;17.10;72.70
81383;DHT22;70834;37.534;-122.308;2023-10-09T12:56:49;17.10;72.60
81383;DHT22;70834;37.534;-122.308;2023-10-09T12:59:11;17.10;72.50
81383;DHT22;70834;37.534;-122.308;2023-10-09T13:01:35;17.10;72.50
81383;DHT22;70834;37.534;-122.308;2023-10-09T13:04:06;17.10;72.50
81383;DHT22;70834;37.534;-122.308;2023-10-09T13:06:32;17.20;73.20
81383;DHT22;70834;37.534;-122.308;2023-10-09T13:08:54;17.20;72.50
81383;DHT22;70834;37.534;-122.308;2023-10-09T13:11:20;17.20;72.50
81383;DHT22;70834;37.534;-122.308;2023-10-09T13:13:43;17.20;72.50
81383;DHT22;70834;37.534;-122.308;2023-10-09T13:16:09;17.20;72.40
81383;DHT22;70834;37.534;-122.308;2023-10-09T13:18:35;17.20;72.40
81383;DHT22;70834;37.534;-122.308;2023-10-09T13:20:58;17.20;72.40
81383;DHT22;70834;37.534;-122.308;2023-10-09T13:23:24;17.20;72.40
81383;DHT22;70834;37.534;-122.308;2023-10-09T13:25:55;17.20;72.30
81383;DHT22;70834;37.534;-122.308;2023-10-09T13:28:16;17.30;72.30
81383;DHT22;70834;37.534;-122.308;2023-10-09T13:30:41;17.30;72.30
81383;DHT22;70834;37.534;-122.308;2023-10-09T13:33:10;17.30;72.20
81383;DHT22;70834;37.534;-122.308;2023-10-09T13:35:37;17.30;72.20
81383;DHT22;70834;37.534;-122.308;2023-10-09T13:38:19;17.30;72.20
81383;DHT22;70834;37.534;-122.308;2023-10-09T13:40:40;17.30;72.30
81383;DHT22;70834;37.534;-122.308;2023-10-09T13:43:02;17.30;72.20
81383;DHT22;70834;37.534;-122.308;2023-10-09T13:45:27;17.30;72.20
81383;DHT22;70834;37.534;-122.308;2023-10-09T13:47:49;17.30;72.20
81383;DHT22;70834;37.534;-122.308;2023-10-09T13:50:10;17.30;72.20
81383;DHT22;70834;37.534;-122.308;2023-10-09T13:52:32;17.30;72.10
81383;DHT22;70834;37.534;-122.308;2023-10-09T13:55:00;17.30;72.00
81383;DHT22;70834;37.534;-122.308;2023-10-09T13:57:36;17.30;72.10
81383;DHT22;70834;37.534;-122.308;2023-10-09T13:59:57;17.30;72.00
81383;DHT22;70834;37.534;-122.308;2023-10-09T14:02:21;17.30;72.00
81383;DHT22;70834;37.534;-122.308;2023-10-09T14:04:42;17.40;71.90
81383;DHT22;70834;37.534;-122.308;2023-10-09T14:07:04;17.30;72.20
81383;DHT22;70834;37.534;-122.308;2023-10-09T14:09:29;17.30;72.20
81383;DHT22;70834;37.534;-122.308;2023-10-09T14:12:00;17.30;72.20
81383;DHT22;70834;37.534;-122.308;2023-10-09T14:14:27;17.30;72.20
81383;DHT22;70834;37.534;-122.308;2023-10-09T14:16:50;17.30;72.20
81383;DHT22;70834;37.534;-122.308;2023-10-09T14:19:18;17.30;72.20
81383;DHT22;70834;37.534;-122.308;2023-10-09T14:21:42;17.30;72.40
81383;DHT22;70834;37.534;-122.308;2023-10-09T14:24:04;17.30;72.60
81383;DHT22;70834;37.534;-122.308;2023-10-09T14:26:36;17.30;72.70
81383;DHT22;70834;37.534;-122.308;2023-10-09T14:28:57;17.30;72.80
81383;DHT22;70834;37.534;-122.308;2023-10-09T14:31:19;17.30;72.70
81383;DHT22;70834;37.534;-122.308;2023-10-09T14:33:50;17.30;72.70
81383;DHT22;70834;37.534;-122.308;2023-10-09T14:36:14;17.30;72.70
81383;DHT22;70834;37.534;-122.308;2023-10-09T14:38:37;17.30;72.60
81383;DHT22;70834;37.534;-122.308;2023-10-09T14:40:59;17.30;72.60
81383;DHT22;70834;37.534;-122.308;2023-10-09T14:43:21;17.40;72.70
81383;DHT22;70834;37.534;-122.308;2023-10-09T14:45:48;17.40;72.60
81383;DHT22;70834;37.534;-122.308;2023-10-09T14:48:10;17.40;72.40
81383;DHT22;70834;37.534;-122.308;2023-10-09T14:50:32;17.50;72.10
81383;DHT22;70834;37.534;-122.308;2023-10-09T14:52:59;17.50;72.20
81383;DHT22;70834;37.534;-122.308;2023-10-09T14:55:22;17.50;72.20
81383;DHT22;70834;37.534;-122.308;2023-10-09T14:57:52;17.50;72.00
81383;DHT22;70834;37.534;-122.308;2023-10-09T15:00:14;17.50;71.90
81383;DHT22;70834;37.534;-122.308;2023-10-09T15:02:36;17.50;71.90
81383;DHT22;70834;37.534;-122.308;2023-10-09T15:04:59;17.60;71.80